createdAt,value
2019-05-03T00:02:52.271Z,99599.52
2019-05-03T00:05:32.476Z,99602.95
2019-05-03T00:08:05.328Z,99608.98
2019-05-03T00:10:32.836Z,99610.98
2019-05-03T00:13:01.888Z,99606.28
2019-05-03T00:15:53.919Z,99605.08
2019-05-03T00:18:23.261Z,99611.11
2019-05-03T00:20:52.727Z,99607.22
2019-05-03T00:23:19.895Z,99602.02
2019-05-03T00:25:47.021Z,99599.75
2019-05-03T00:28:15.301Z,99604.48
2019-05-03T00:30:42.489Z,99606.52
2019-05-03T00:33:09.528Z,99608.16
2019-05-03T00:35:59.319Z,99604.85
2019-05-03T00:38:27.002Z,99604.59
2019-05-03T00:40:54.261Z,99602.02
2019-05-03T00:43:22.260Z,99601.12
2019-05-03T00:45:51.712Z,99599.52
2019-05-03T00:48:19.262Z,99603.42
2019-05-03T00:50:46.327Z,99602.95
2019-05-03T00:53:13.347Z,99599.75
2019-05-03T00:55:42.636Z,99601.52
2019-05-03T00:58:11.722Z,99600.95
2019-05-03T01:00:41.651Z,99607.92
2019-05-03T01:03:12.426Z,99602.28
2019-05-03T01:05:39.779Z,99602.66
2019-05-03T01:08:06.853Z,99601.95
2019-05-03T01:10:33.944Z,99601.72
2019-05-03T01:13:02.121Z,99599.05
2019-05-03T01:15:36.596Z,99602.09
2019-05-03T01:18:05.623Z,99599.63
2019-05-03T01:20:33.038Z,99602.42
2019-05-03T01:23:01.953Z,99606.48
2019-05-03T01:25:34.612Z,99609.28
2019-05-03T01:27:58.098Z,99603.86
2019-05-03T01:30:25.173Z,99614.11
2019-05-03T01:32:52.467Z,99618.38
2019-05-03T01:35:21.940Z,99616.72
2019-05-03T01:37:49.056Z,99624.41
2019-05-03T01:40:16.091Z,99627.81
2019-05-03T01:42:44.250Z,99628.08
2019-05-03T01:45:12.133Z,99628.78
2019-05-03T01:47:47.084Z,99631.02
2019-05-03T01:50:39.792Z,99630.55
2019-05-03T01:53:08.892Z,99639.77
2019-05-03T01:56:04.578Z,99635.61
2019-05-03T01:58:32.393Z,99643.17
2019-05-03T02:01:22.179Z,99647.76
2019-05-03T02:03:59.118Z,99643.95
2019-05-03T02:06:26.227Z,99646.30
2019-05-03T02:08:54.555Z,99656.08
2019-05-03T02:11:22.211Z,99658.67
2019-05-03T02:13:49.665Z,99655.69
2019-05-03T02:16:16.873Z,99650.81
2019-05-03T02:18:43.921Z,99658.34
2019-05-03T02:21:12.242Z,99655.58
2019-05-03T02:23:39.416Z,99656.34
2019-05-03T02:26:06.454Z,99658.79
2019-05-03T02:28:35.414Z,99654.88
2019-05-03T02:31:03.584Z,99659.33
2019-05-03T02:33:32.869Z,99659.39
2019-05-03T02:36:03.270Z,99659.36
2019-05-03T02:38:30.247Z,99662.48
2019-05-03T02:40:57.263Z,99658.70
2019-05-03T02:43:38.599Z,99665.21
2019-05-03T02:46:25.596Z,99663.16
2019-05-03T02:48:58.820Z,99653.53
2019-05-03T02:51:26.308Z,99652.81
2019-05-03T02:53:56.770Z,99657.79
2019-05-03T02:56:25.892Z,99661.51
2019-05-03T02:58:51.632Z,99659.12
2019-05-03T03:01:18.769Z,99661.30
2019-05-03T03:03:46.277Z,99659.23
2019-05-03T03:06:15.899Z,99662.50
2019-05-03T03:08:48.299Z,99663.63
2019-05-03T03:11:18.758Z,99663.75
2019-05-03T03:13:47.060Z,99666.34
2019-05-03T03:16:17.215Z,99675.03
2019-05-03T03:18:45.612Z,99671.81
2019-05-03T03:21:16.474Z,99665.13
2019-05-03T03:24:06.450Z,99669.39
2019-05-03T03:26:41.635Z,99672.53
2019-05-03T03:29:07.038Z,99667.41
2019-05-03T03:31:49.529Z,99673.80
2019-05-03T03:34:20.737Z,99672.25
2019-05-03T03:37:00.927Z,99673.95
2019-05-03T03:39:19.989Z,99685.98
2019-05-03T03:41:47.643Z,99686.70
2019-05-03T03:44:17.285Z,99687.94
2019-05-03T03:46:46.137Z,99681.92
2019-05-03T03:49:15.599Z,99686.64
2019-05-03T03:51:45.598Z,99691.56
2019-05-03T03:54:16.932Z,99693.41
2019-05-03T03:56:59.366Z,99691.97
2019-05-03T03:59:18.572Z,99699.64
2019-05-03T04:01:46.021Z,99701.79
2019-05-03T04:04:16.037Z,99701.27
2019-05-03T04:06:46.417Z,99709.75
2019-05-03T04:09:12.422Z,99716.17
2019-05-03T04:11:40.704Z,99709.36
2019-05-03T04:14:16.152Z,99713.44
2019-05-03T04:17:07.004Z,99715.58
2019-05-03T04:19:36.371Z,99720.64
2019-05-03T04:22:05.955Z,99729.63
2019-05-03T04:24:35.160Z,99731.30
2019-05-03T04:27:15.584Z,99733.50
2019-05-03T04:29:45.403Z,99736.47
2019-05-03T04:32:15.400Z,99739.21
2019-05-03T04:34:42.241Z,99740.31
2019-05-03T04:37:09.305Z,99743.20
2019-05-03T04:39:37.495Z,99744.17
2019-05-03T04:42:06.724Z,99743.38
2019-05-03T04:44:35.771Z,99748.41
2019-05-03T04:47:02.482Z,99744.98
2019-05-03T04:49:29.547Z,99749.10
2019-05-03T04:51:56.684Z,99751.97
2019-05-03T04:54:50.560Z,99756.49
2019-05-03T04:57:34.855Z,99766.05
2019-05-03T04:59:46.593Z,99765.62
2019-05-03T05:02:15.972Z,99774.79
2019-05-03T05:04:42.606Z,99778.80
2019-05-03T05:07:10.178Z,99781.77
2019-05-03T05:09:37.223Z,99790.67
2019-05-03T05:12:05.749Z,99795.50
2019-05-03T05:14:35.299Z,99798.34
2019-05-03T05:17:02.477Z,99790.30
2019-05-03T05:19:39.715Z,99801.63
2019-05-03T05:22:09.203Z,99810.17
2019-05-03T05:24:36.278Z,99807.03
2019-05-03T05:27:48.283Z,99809.02
2019-05-03T05:30:06.354Z,99813.28
2019-05-03T05:32:35.034Z,99812.23
2019-05-03T05:35:02.202Z,99810.23
2019-05-03T05:37:30.615Z,99809.84
2019-05-03T05:39:57.687Z,99814.14
2019-05-03T05:42:25.154Z,99809.36
2019-05-03T05:44:52.221Z,99816.09
2019-05-03T05:47:44.998Z,99820.29
2019-05-03T05:50:21.176Z,99816.78
2019-05-03T05:52:48.307Z,99814.75
2019-05-03T05:55:48.310Z,99814.81
2019-05-03T05:58:35.230Z,99819.19
2019-05-03T06:01:10.221Z,99827.09
2019-05-03T06:03:37.293Z,99826.01
2019-05-03T06:06:08.524Z,99830.32
2019-05-03T06:08:48.420Z,99832.44
2019-05-03T06:11:20.932Z,99830.84
2019-05-03T06:13:54.949Z,99829.58
2019-05-03T06:16:27.537Z,99830.03
2019-05-03T06:19:04.562Z,99828.24
2019-05-03T06:21:40.497Z,99835.14
2019-05-03T06:24:12.430Z,99836.00
2019-05-03T06:26:44.875Z,99829.27
2019-05-03T06:29:14.964Z,99829.69
2019-05-03T06:32:16.112Z,99838.02
2019-05-03T06:34:45.504Z,99837.08
2019-05-03T06:37:15.182Z,99832.34
2019-05-03T06:39:42.239Z,99831.42
2019-05-03T06:42:10.091Z,99833.73
2019-05-03T06:44:38.428Z,99831.67
2019-05-03T06:47:11.457Z,99844.49
2019-05-03T06:49:44.791Z,99846.79
2019-05-03T06:52:10.836Z,99844.03
2019-05-03T06:54:47.414Z,99839.79
2019-05-03T06:57:17.538Z,99843.33
2019-05-03T06:59:56.094Z,99843.38
2019-05-03T07:02:46.124Z,99843.95
2019-05-03T07:05:25.091Z,99850.09
2019-05-03T07:08:20.267Z,99847.70
2019-05-03T07:10:50.693Z,99850.77
2019-05-03T07:13:21.797Z,99854.83
2019-05-03T07:15:50.166Z,99865.63
2019-05-03T07:18:19.625Z,99869.05
2019-05-03T07:20:57.030Z,99863.72
2019-05-03T07:23:25.674Z,99870.95
2019-05-03T07:25:57.070Z,99869.09
2019-05-03T07:28:25.599Z,99871.94
2019-05-03T07:30:54.419Z,99867.02
2019-05-03T07:33:34.511Z,99868.81
2019-05-03T07:36:01.485Z,99868.92
2019-05-03T07:38:30.096Z,99872.26
2019-05-03T07:40:57.294Z,99866.48
2019-05-03T07:43:24.693Z,99878.27
2019-05-03T07:45:55.408Z,99871.84
2019-05-03T07:48:25.291Z,99862.42
2019-05-03T07:50:55.084Z,99868.23
2019-05-03T07:53:25.181Z,99868.64
2019-05-03T07:56:09.433Z,99870.53
2019-05-03T07:58:40.983Z,99879.94
2019-05-03T08:01:16.139Z,99869.49
2019-05-03T08:03:47.451Z,99872.20
2019-05-03T08:06:15.017Z,99878.67
2019-05-03T08:08:42.173Z,99881.86
2019-05-03T08:11:09.204Z,99874.70
2019-05-03T08:13:36.436Z,99875.26
2019-05-03T08:16:05.680Z,99882.44
2019-05-03T08:18:32.788Z,99881.30
2019-05-03T08:21:01.006Z,99874.60
2019-05-03T08:23:30.362Z,99869.49
2019-05-03T08:25:57.427Z,99863.87
2019-05-03T08:28:24.722Z,99863.39
2019-05-03T08:31:04.786Z,99866.26
2019-05-03T08:33:48.750Z,99866.16
2019-05-03T08:36:17.654Z,99857.00
2019-05-03T08:38:45.208Z,99860.72
2019-05-03T08:41:15.228Z,99860.16
2019-05-03T08:43:44.619Z,99863.53
2019-05-03T08:46:11.844Z,99866.44
2019-05-03T08:48:39.992Z,99871.08
2019-05-03T08:51:07.078Z,99860.06
2019-05-03T08:53:35.789Z,99851.80
2019-05-03T08:56:05.142Z,99862.19
2019-05-03T08:58:34.783Z,99865.45
2019-05-03T09:01:05.526Z,99863.25
2019-05-03T09:03:36.282Z,99857.70
2019-05-03T09:06:04.633Z,99851.95
2019-05-03T09:08:31.869Z,99844.52
2019-05-03T09:11:05.085Z,99853.59
2019-05-03T09:13:46.458Z,99856.45
2019-05-03T09:16:14.755Z,99845.98
2019-05-03T09:18:42.009Z,99842.98
2019-05-03T09:21:09.245Z,99839.75
2019-05-03T09:23:36.302Z,99837.22
2019-05-03T09:26:04.630Z,99832.09
2019-05-03T09:28:34.848Z,99833.52
2019-05-03T09:31:02.088Z,99822.94
2019-05-03T09:33:29.386Z,99818.95
2019-05-03T09:35:56.886Z,99805.47
2019-05-03T09:38:25.626Z,99811.53
2019-05-03T09:40:54.622Z,99813.13
2019-05-03T09:43:21.918Z,99814.62
2019-05-03T09:45:50.455Z,99814.24
2019-05-03T09:48:17.528Z,99809.30
2019-05-03T09:50:45.146Z,99821.28
2019-05-03T09:53:14.767Z,99813.48
2019-05-03T09:55:44.979Z,99805.42
2019-05-03T09:58:12.051Z,99820.32
2019-05-03T10:00:39.086Z,99809.39
2019-05-03T10:03:06.302Z,99816.78
2019-05-03T10:05:35.086Z,99821.85
2019-05-03T10:08:04.878Z,99824.23
2019-05-03T10:10:51.010Z,99814.55
2019-05-03T10:13:23.531Z,99829.52
2019-05-03T10:15:50.550Z,99816.95
2019-05-03T10:18:17.607Z,99809.77
2019-05-03T10:20:44.806Z,99816.36
2019-05-03T10:23:29.826Z,99810.44
2019-05-03T10:25:56.867Z,99807.91
2019-05-03T10:28:25.094Z,99808.59
2019-05-03T10:30:54.739Z,99802.31
2019-05-03T10:33:26.958Z,99796.30
2019-05-03T10:35:54.580Z,99792.20
2019-05-03T10:38:21.955Z,99805.88
2019-05-03T10:40:49.670Z,99808.09
2019-05-03T10:43:16.846Z,99797.58
2019-05-03T10:45:45.020Z,99801.83
2019-05-03T10:48:15.497Z,99791.77
2019-05-03T10:50:42.938Z,99801.02
2019-05-03T10:53:19.878Z,99809.90
2019-05-03T10:56:05.318Z,99804.98
2019-05-03T10:58:32.610Z,99804.23
2019-05-03T11:00:59.784Z,99805.76
2019-05-03T11:03:28.682Z,99802.69
2019-05-03T11:05:55.834Z,99797.41
2019-05-03T11:08:22.881Z,99795.01
2019-05-03T11:10:50.511Z,99795.77
2019-05-03T11:13:17.622Z,99800.49
2019-05-03T11:15:44.687Z,99804.30
2019-05-03T11:18:11.845Z,99809.23
2019-05-03T11:20:38.903Z,99797.45
2019-05-03T11:23:07.536Z,99803.80
2019-05-03T11:25:41.713Z,99806.14
2019-05-03T11:28:17.538Z,99802.69
2019-05-03T11:30:53.114Z,99799.26
2019-05-03T11:33:20.648Z,99799.66
2019-05-03T11:36:22.264Z,99801.59
2019-05-03T11:38:50.516Z,99800.98
2019-05-03T11:41:35.998Z,99800.04
2019-05-03T11:44:21.977Z,99795.98
2019-05-03T11:46:49.189Z,99790.28
2019-05-03T11:49:16.425Z,99798.31
2019-05-03T11:51:44.628Z,99798.78
2019-05-03T11:54:11.833Z,99797.41
2019-05-03T11:56:39.285Z,99797.85
2019-05-03T11:59:07.591Z,99803.70
2019-05-03T12:02:02.395Z,99811.52
2019-05-03T12:04:35.403Z,99809.02
2019-05-03T12:07:03.073Z,99809.48
2019-05-03T12:09:30.913Z,99806.77
2019-05-03T12:12:04.892Z,99808.58
2019-05-03T12:14:39.535Z,99797.70
2019-05-03T12:17:18.343Z,99799.34
2019-05-03T12:19:40.465Z,99793.63
2019-05-03T12:22:08.899Z,99810.67
2019-05-03T12:24:37.042Z,99803.37
2019-05-03T12:27:04.818Z,99802.52
2019-05-03T12:29:35.159Z,99797.49
2019-05-03T12:32:02.065Z,99800.86
2019-05-03T12:34:30.224Z,99799.20
2019-05-03T12:36:57.329Z,99795.44
2019-05-03T12:39:30.551Z,99797.53
2019-05-03T12:41:57.053Z,99780.89
2019-05-03T12:44:24.665Z,99774.95
2019-05-03T12:46:51.951Z,99778.27
2019-05-03T12:49:19.054Z,99767.13
2019-05-03T12:51:48.101Z,99774.33
2019-05-03T12:54:15.423Z,99780.42
2019-05-03T12:56:42.455Z,99763.95
2019-05-03T12:59:22.656Z,99767.27
2019-05-03T13:02:04.745Z,99762.84
2019-05-03T13:04:34.222Z,99755.52
2019-05-03T13:07:24.656Z,99761.64
2019-05-03T13:09:52.092Z,99763.70
2019-05-03T13:12:21.486Z,99767.30
2019-05-03T13:14:50.641Z,99759.95
2019-05-03T13:17:34.745Z,99748.04
2019-05-03T13:20:04.951Z,99753.10
2019-05-03T13:22:34.925Z,99754.36
2019-05-03T13:25:02.083Z,99755.89
2019-05-03T13:27:29.281Z,99755.98
2019-05-03T13:29:57.316Z,99744.28
2019-05-03T13:32:26.198Z,99744.76
2019-05-03T13:35:01.999Z,99726.44
2019-05-03T13:37:29.091Z,99743.98
2019-05-03T13:39:56.164Z,99738.97
2019-05-03T13:42:23.292Z,99724.01
2019-05-03T13:44:50.538Z,99725.66
2019-05-03T13:47:17.671Z,99720.01
2019-05-03T13:49:45.767Z,99704.52
2019-05-03T13:52:14.559Z,99704.63
2019-05-03T13:54:47.859Z,99703.59
2019-05-03T13:57:18.241Z,99699.69
2019-05-03T14:03:06.443Z,99692.25
2019-05-03T14:05:38.161Z,99698.41
2019-05-03T14:08:05.317Z,99697.49
2019-05-03T14:10:35.986Z,99695.13
2019-05-03T14:13:03.224Z,99684.95
2019-05-03T14:15:34.626Z,99678.80
2019-05-03T14:18:05.573Z,99681.23
2019-05-03T14:21:06.086Z,99663.72
2019-05-03T14:23:58.322Z,99684.77
2019-05-03T14:26:56.108Z,99676.62
2019-05-03T14:29:25.298Z,99678.08
2019-05-03T14:31:54.485Z,99674.52
2019-05-03T14:34:21.728Z,99656.25
2019-05-03T14:36:48.997Z,99661.38
2019-05-03T14:39:16.100Z,99661.86
2019-05-03T14:41:46.525Z,99658.72
2019-05-03T14:44:14.758Z,99656.95
2019-05-03T14:46:41.481Z,99662.84
2019-05-03T14:49:08.580Z,99644.56
2019-05-03T14:51:37.686Z,99654.64
2019-05-03T14:54:05.628Z,99655.50
2019-05-03T14:56:51.348Z,99657.76
2019-05-03T14:59:47.190Z,99669.83
2019-05-03T15:02:47.595Z,99662.27
2019-05-03T15:05:14.738Z,99658.52
2019-05-03T15:07:41.533Z,99652.75
2019-05-03T15:10:08.812Z,99663.50
2019-05-03T15:12:36.224Z,99652.52
2019-05-03T15:15:05.402Z,99653.31
2019-05-03T15:17:35.080Z,99644.67
2019-05-03T15:20:07.899Z,99643.91
2019-05-03T15:22:36.181Z,99640.34
2019-05-03T15:25:05.074Z,99637.42
2019-05-03T15:27:35.261Z,99643.30
2019-05-03T15:30:04.935Z,99652.08
2019-05-03T15:32:32.212Z,99654.09
2019-05-03T15:35:00.007Z,99645.98
2019-05-03T15:37:27.081Z,99643.47
2019-05-03T15:39:54.708Z,99645.92
2019-05-03T15:42:23.170Z,99650.23
2019-05-03T15:45:14.625Z,99659.27
2019-05-03T15:48:01.407Z,99657.59
2019-05-03T15:50:28.471Z,99641.30
2019-05-03T15:52:55.764Z,99645.16
2019-05-03T15:55:24.541Z,99643.48
2019-05-03T15:57:51.666Z,99645.13
2019-05-03T16:00:19.351Z,99639.77
2019-05-03T16:02:46.712Z,99636.41
2019-05-03T16:05:15.452Z,99638.03
2019-05-03T16:07:44.576Z,99633.94
2019-05-03T16:10:12.203Z,99650.70
2019-05-03T16:12:39.287Z,99642.34
2019-05-03T16:15:06.497Z,99642.87
2019-05-03T16:17:35.417Z,99646.62
2019-05-03T16:20:05.018Z,99648.30
2019-05-03T16:22:33.761Z,99647.08
2019-05-03T16:25:00.882Z,99644.77
2019-05-03T16:27:48.975Z,99644.99
2019-05-03T16:30:29.592Z,99642.34
2019-05-03T16:32:56.898Z,99646.84
2019-05-03T16:35:25.620Z,99650.98
2019-05-03T16:37:54.492Z,99648.66
2019-05-03T16:40:22.752Z,99644.99
2019-05-03T16:42:54.411Z,99647.40
2019-05-03T16:45:21.498Z,99644.02
2019-05-03T16:47:48.563Z,99652.11
2019-05-03T16:50:15.763Z,99652.34
2019-05-03T16:52:42.996Z,99653.57
2019-05-03T16:55:10.655Z,99645.13
2019-05-03T16:57:41.764Z,99655.66
2019-05-03T17:00:09.254Z,99660.25
2019-05-03T17:02:38.348Z,99656.56
2019-05-03T17:05:25.226Z,99656.58
2019-05-03T17:08:14.701Z,99659.09
2019-05-03T17:10:46.996Z,99656.02
2019-05-03T17:13:15.775Z,99661.24
2019-05-03T17:15:42.975Z,99658.31
2019-05-03T17:18:11.570Z,99647.62
2019-05-03T17:20:38.765Z,99651.73
2019-05-03T17:23:07.022Z,99651.38
2019-05-03T17:25:36.514Z,99653.72
2019-05-03T17:28:05.013Z,99651.22
2019-05-03T17:30:34.383Z,99651.66
2019-05-03T17:33:04.666Z,99642.47
2019-05-03T17:35:35.688Z,99650.73
2019-05-03T17:38:17.179Z,99655.59
2019-05-03T17:41:09.820Z,99648.45
2019-05-03T17:43:55.332Z,99653.63
2019-05-03T17:46:29.724Z,99655.48
2019-05-03T17:49:05.159Z,99658.98
2019-05-03T17:51:55.821Z,99662.09
2019-05-03T17:55:01.114Z,99663.54
2019-05-03T17:57:55.110Z,99664.52
2019-05-03T18:00:46.232Z,99667.38
2019-05-03T18:03:20.190Z,99668.20
2019-05-03T18:06:17.296Z,99668.61
2019-05-03T18:09:00.282Z,99665.71
2019-05-03T18:11:34.675Z,99660.25
2019-05-03T18:14:14.549Z,99666.41
2019-05-03T18:16:48.453Z,99666.55
2019-05-03T18:19:17.633Z,99662.82
2019-05-03T18:21:47.772Z,99668.42
2019-05-03T18:24:20.038Z,99680.79
2019-05-03T18:26:53.597Z,99676.20
2019-05-03T18:29:22.334Z,99676.92
2019-05-03T18:31:57.941Z,99677.90
2019-05-03T18:34:30.400Z,99674.70
2019-05-03T18:37:11.517Z,99682.78
2019-05-03T18:39:42.261Z,99688.47
2019-05-03T18:42:17.891Z,99689.88
2019-05-03T18:48:04.933Z,99687.39
2019-05-03T18:50:40.961Z,99688.67
2019-05-03T18:53:17.572Z,99686.33
2019-05-03T18:55:45.416Z,99691.88
2019-05-03T18:58:12.651Z,99690.45
2019-05-03T19:00:42.086Z,99690.45
2019-05-03T19:03:13.285Z,99686.88
2019-05-03T19:05:45.506Z,99691.05
2019-05-03T19:08:38.875Z,99697.52
2019-05-03T19:11:17.735Z,99697.05
2019-05-03T19:13:57.819Z,99701.27
2019-05-03T19:16:43.123Z,99702.48
2019-05-03T19:19:17.337Z,99704.92
2019-05-03T19:21:46.318Z,99705.59
2019-05-03T19:24:15.310Z,99702.98
2019-05-03T19:26:45.363Z,99702.25
2019-05-03T19:29:14.857Z,99702.98
2019-05-03T19:31:46.674Z,99703.53
2019-05-03T19:34:15.523Z,99696.63
2019-05-03T19:36:42.824Z,99697.30
2019-05-03T19:39:10.112Z,99699.56
2019-05-03T19:41:37.428Z,99700.38
2019-05-03T19:44:07.885Z,99703.00
2019-05-03T19:46:36.626Z,99694.44
2019-05-03T19:49:05.080Z,99699.14
2019-05-03T19:51:34.387Z,99694.20
2019-05-03T19:54:01.770Z,99697.10
2019-05-03T19:56:32.681Z,99704.36
2019-05-03T19:59:04.839Z,99705.79
2019-05-03T20:01:55.245Z,99708.05
2019-05-03T20:04:40.846Z,99707.61
2019-05-03T20:07:22.911Z,99702.97
2019-05-03T20:09:54.367Z,99710.28
2019-05-03T20:12:26.843Z,99709.56
2019-05-03T20:14:54.588Z,99705.09
2019-05-03T20:17:22.129Z,99700.91
2019-05-03T20:19:49.373Z,99707.14
2019-05-03T20:22:17.702Z,99704.36
2019-05-03T20:24:48.776Z,99702.73
2019-05-03T20:27:25.054Z,99697.42
2019-05-03T20:29:55.472Z,99698.38
2019-05-03T20:32:25.199Z,99698.81
2019-05-03T20:34:52.612Z,99702.20
2019-05-03T20:37:19.852Z,99702.44
2019-05-03T20:39:52.066Z,99709.07
2019-05-03T20:42:40.719Z,99713.80
2019-05-03T20:45:18.078Z,99708.53
2019-05-03T20:47:59.150Z,99703.30
2019-05-03T20:50:29.228Z,99707.07
2019-05-03T20:53:00.926Z,99704.93
2019-05-03T20:55:28.051Z,99704.59
2019-05-03T20:57:55.207Z,99710.68
2019-05-03T21:00:25.598Z,99705.98
2019-05-03T21:02:57.545Z,99706.48
2019-05-03T21:05:32.034Z,99709.05
2019-05-03T21:08:01.191Z,99710.30
2019-05-03T21:10:28.309Z,99707.74
2019-05-03T21:13:00.263Z,99710.45
2019-05-03T21:16:01.872Z,99711.42
2019-05-03T21:18:45.698Z,99712.22
2019-05-03T21:21:28.594Z,99709.09
2019-05-03T21:24:01.911Z,99704.91
2019-05-03T21:26:29.971Z,99710.89
2019-05-03T21:28:57.206Z,99705.26
2019-05-03T21:31:26.070Z,99709.34
2019-05-03T21:33:56.050Z,99706.05
2019-05-03T21:36:26.043Z,99704.52
2019-05-03T21:38:55.001Z,99699.91
2019-05-03T21:41:27.650Z,99699.21
2019-05-03T21:43:55.910Z,99700.84
2019-05-03T21:46:36.479Z,99688.65
2019-05-03T21:49:16.697Z,99690.19
2019-05-03T21:51:45.649Z,99692.92
2019-05-03T21:54:15.274Z,99689.87
2019-05-03T21:56:45.447Z,99688.57
2019-05-03T21:59:12.777Z,99687.62
2019-05-03T22:01:45.400Z,99691.52
2019-05-03T22:04:12.477Z,99686.54
2019-05-03T22:06:39.707Z,99683.45
2019-05-03T22:09:08.373Z,99681.12
2019-05-03T22:11:37.616Z,99670.66
2019-05-03T22:14:09.008Z,99673.59
2019-05-03T22:17:00.538Z,99683.13
2019-05-03T22:19:29.759Z,99674.80
2019-05-03T22:22:22.468Z,99684.12
2019-05-03T22:25:00.265Z,99686.77
2019-05-03T22:27:37.434Z,99689.19
2019-05-03T22:30:08.895Z,99676.77
2019-05-03T22:32:46.017Z,99666.96
2019-05-03T22:35:15.516Z,99660.01
2019-05-03T22:37:44.646Z,99659.70
2019-05-03T22:40:11.783Z,99654.53
2019-05-03T22:42:38.905Z,99649.92
2019-05-03T22:45:06.892Z,99645.41
2019-05-03T22:47:35.754Z,99642.03
2019-05-03T22:50:05.288Z,99639.92
2019-05-03T22:52:32.423Z,99635.43
2019-05-03T22:55:00.581Z,99638.48
2019-05-03T22:57:27.705Z,99638.34
2019-05-03T22:59:54.774Z,99641.56
2019-05-03T23:02:24.926Z,99634.97
2019-05-03T23:04:52.239Z,99633.79
2019-05-03T23:07:19.526Z,99630.61
2019-05-03T23:09:46.631Z,99624.31
2019-05-03T23:12:13.782Z,99620.37
2019-05-03T23:14:40.886Z,99617.11
2019-05-03T23:17:09.422Z,99610.97
2019-05-03T23:19:40.854Z,99606.25
2019-05-03T23:22:24.605Z,99610.77
2019-05-03T23:24:52.195Z,99607.77
2019-05-03T23:27:19.374Z,99609.55
2019-05-03T23:29:46.520Z,99591.45
2019-05-03T23:32:15.191Z,99586.52
2019-05-03T23:34:42.469Z,99582.21
2019-05-03T23:37:09.587Z,99575.66
2019-05-03T23:39:38.906Z,99571.42
2019-05-03T23:42:05.982Z,99569.66
2019-05-03T23:44:35.087Z,99568.73
2019-05-03T23:47:25.093Z,99568.33
2019-05-03T23:49:55.385Z,99558.98
2019-05-03T23:52:49.567Z,99554.86
2019-05-03T23:55:28.062Z,99553.30
2019-05-03T23:57:55.479Z,99553.19
